Chellissa — WAR3497 — position and weather

sailwx.info

Track history (hours):
 
Tides and Currents Weather Stations Pressure Air Temp Water Temp Dewpoint Dewpoint Depression Visibility Wind Speed Wind Dir Waves Ship Positions

Chellissa

Owner: CHELLISSA INC, CHARLESTON, OR. More information available from US FCC via Universal Licensing System and Coast Guard Vessel Documentation Center.

Last reported at 2018-Jul-21 05:01 UTC. Time now 2018-Jul-21 17:27 UTC.
Position N 46°57' W 124°24'.

Length 30 m; draft 4 m.

Type: Fishing. MMSI: 367162190.

Date/timePositionNaut miles runAvg speedWind from/ knotsBaromVisibWave heightAir tempDewpointWater temp
2018-Jul-21 05:01N 46°57' W 124°24'1 7.6
2018-Jul-21 04:57N 46°57' W 124°24'3 7.6
2018-Jul-21 04:30N 46°53' W 124°23'4 7.6
2018-Jul-21 04:00N 46°50' W 124°21'4 7.5
2018-Jul-21 03:30N 46°46' W 124°20'4 7.8
2018-Jul-21 03:01N 46°42' W 124°18'4 7.7
2018-Jul-21 02:30N 46°39' W 124°17'4 7.6
2018-Jul-21 02:00N 46°35' W 124°15'5 7.7
2018-Jul-21 01:19N 46°30' W 124°13'2 7.8
2018-Jul-21 01:00N 46°28' W 124°12'6 8.0
2018-Jul-21 00:13N 46°21' W 124°09'2 8.2
2018-Jul-21 00:00N 46°20' W 124°09'4 7.9
2018-Jul-20 23:29N 46°16' W 124°06'4 7.9
2018-Jul-20 23:00N 46°15' W 124°01'4 8.6
2018-Jul-20 22:31N 46°12' W 123°56'3 6.5
2018-Jul-20 22:00N 46°11' W 123°52'0 0.0
2018-Jul-20 21:14N 46°11' W 123°52'0 0.0
2018-Jul-20 21:00N 46°11' W 123°52'0 0.0
2018-Jul-20 20:30N 46°11' W 123°52'0 0.0
2018-Jul-20 20:00N 46°11' W 123°52'0 0.0
2018-Jul-20 19:17N 46°11' W 123°52'0 0.0
2018-Jul-20 19:00N 46°11' W 123°52'0 0.0
2018-Jul-20 18:30N 46°11' W 123°52'0 0.0
2018-Jul-20 18:00N 46°11' W 123°52'0 0.0
2018-Jul-20 17:30N 46°11' W 123°52'0 0.0
2018-Jul-20 17:00N 46°11' W 123°52'2 3.6
2018-Jul-20 16:22N 46°12' W 123°55'3 7.9
2018-Jul-20 16:00N 46°13' W 123°58'4 7.8
2018-Jul-20 15:30N 46°15' W 124°03'4 7.5
2018-Jul-20 14:55N 46°19' W 124°07'5 8.4
2018-Jul-20 14:16N 46°24' W 124°09'516.9
2018-Jul-20 14:00N 46°28' W 124°11'2 3.6
2018-Jul-20 13:30N 46°30' W 124°11'4 8.6
2018-Jul-20 13:00N 46°34' W 124°13'4 8.7
2018-Jul-20 12:30N 46°38' W 124°14'4 8.8
2018-Jul-20 12:00N 46°43' W 124°16'4 8.5
2018-Jul-20 11:30N 46°47' W 124°17'4 8.3
2018-Jul-20 11:00N 46°51' W 124°19'4 8.1
2018-Jul-20 10:30N 46°55' W 124°21'4 8.2
2018-Jul-20 10:00N 46°58' W 124°23'1 0.1
2018-Jul-19 06:25N 46°57' W 124°24'3 7.9
2018-Jul-19 06:00N 46°54' W 124°23'4 8.3
2018-Jul-19 05:30N 46°50' W 124°22'4 7.4
2018-Jul-19 05:00N 46°47' W 124°20'4 7.8
2018-Jul-19 04:30N 46°43' W 124°19'4 7.3
2018-Jul-19 04:00N 46°39' W 124°17'4 7.6
2018-Jul-19 03:30N 46°36' W 124°16'4 7.9
2018-Jul-19 03:01N 46°32' W 124°14'4 8.0
2018-Jul-19 02:30N 46°28' W 124°11'4 8.2
2018-Jul-19 02:00N 46°24' W 124°10'4 7.8
2018-Jul-19 01:30N 46°21' W 124°09'4 7.6
2018-Jul-19 01:00N 46°17' W 124°08'3 6.7
2018-Jul-19 00:30N 46°15' W 124°04'3 6.3
2018-Jul-19 00:00N 46°14' W 123°59'3 6.1
2018-Jul-18 23:30N 46°12' W 123°56'3 6.1
2018-Jul-18 23:01N 46°11' W 123°52'0 0.1
2018-Jul-18 22:20N 46°11' W 123°52'0 0.0
2018-Jul-18 22:00N 46°11' W 123°52'0 0.0
2018-Jul-18 21:31N 46°11' W 123°52'0 0.0
2018-Jul-18 21:01N 46°11' W 123°52'0 0.0
2018-Jul-18 20:30N 46°11' W 123°52'0 0.0
2018-Jul-18 20:00N 46°11' W 123°52'0 0.0
2018-Jul-18 19:30N 46°11' W 123°52'0 0.0
2018-Jul-18 19:00N 46°11' W 123°52'0 0.0
2018-Jul-18 18:21N 46°11' W 123°52'0 0.0
2018-Jul-18 18:01N 46°11' W 123°52'0 0.0
2018-Jul-18 17:31N 46°11' W 123°52'0 0.0
2018-Jul-18 17:00N 46°11' W 123°52'0 0.0
2018-Jul-18 16:31N 46°11' W 123°52'0 0.0
2018-Jul-18 16:01N 46°11' W 123°52'0 0.0
2018-Jul-18 15:27N 46°11' W 123°52'0 0.0
2018-Jul-18 15:00N 46°11' W 123°52'0 0.0
2018-Jul-18 14:30N 46°11' W 123°52'0 0.0
2018-Jul-18 13:30N 46°11' W 123°52'0 0.0
2018-Jul-18 13:00N 46°11' W 123°52'0 0.0
2018-Jul-18 12:16N 46°11' W 123°52'0 0.0
2018-Jul-18 12:01N 46°11' W 123°52'0 0.0
2018-Jul-18 11:30N 46°11' W 123°52'0 0.0
2018-Jul-18 10:30N 46°11' W 123°52'0 0.0
2018-Jul-18 10:00N 46°11' W 123°52'0 0.0
2018-Jul-18 09:30N 46°11' W 123°52'0 0.0
2018-Jul-18 09:00N 46°11' W 123°52'0 0.0
2018-Jul-18 08:30N 46°11' W 123°52'0 0.0
2018-Jul-18 08:00N 46°11' W 123°52'0 0.0
2018-Jul-18 07:30N 46°11' W 123°52'0 0.0
2018-Jul-18 06:59N 46°11' W 123°52'0 0.0
2018-Jul-18 06:31N 46°11' W 123°52'0 0.0
2018-Jul-18 06:00N 46°11' W 123°52'0 0.0
2018-Jul-18 05:30N 46°11' W 123°52'0 0.0
2018-Jul-18 04:48N 46°11' W 123°52'0 0.0
2018-Jul-18 04:30N 46°11' W 123°52'0 0.0
2018-Jul-18 03:54N 46°11' W 123°52'0 0.0
2018-Jul-18 03:30N 46°11' W 123°52'0 0.0
2018-Jul-18 03:00N 46°11' W 123°52'0 0.0
2018-Jul-18 02:31N 46°11' W 123°52'0 0.0
2018-Jul-18 02:00N 46°11' W 123°52'0 0.0
2018-Jul-18 01:31N 46°11' W 123°52'0 0.0
2018-Jul-18 00:40N 46°11' W 123°52'0 0.0
2018-Jul-18 00:31N 46°11' W 123°52'0 0.0
2018-Jul-18 00:00N 46°11' W 123°52'0 0.0
2018-Jul-17 23:30N 46°11' W 123°52'0 0.0
2018-Jul-17 23:00N 46°11' W 123°52'0 0.0
2018-Jul-17 22:31N 46°11' W 123°52'0 0.0
2018-Jul-17 22:01N 46°11' W 123°52'0 0.0
2018-Jul-17 21:30N 46°11' W 123°52'0 0.0
2018-Jul-17 21:00N 46°11' W 123°52'0 0.0
2018-Jul-17 20:31N 46°11' W 123°52'0 0.0
2018-Jul-17 20:00N 46°11' W 123°52'0 0.0
2018-Jul-17 19:30N 46°11' W 123°52'0 0.0
2018-Jul-17 19:00N 46°11' W 123°52'0 0.0
2018-Jul-17 18:30N 46°11' W 123°52'0 0.0
2018-Jul-17 18:00N 46°11' W 123°52'0 0.0
2018-Jul-17 17:31N 46°11' W 123°52'0 0.0
2018-Jul-17 17:00N 46°11' W 123°52'0 0.0
2018-Jul-17 16:15N 46°11' W 123°52'0 0.0
2018-Jul-17 16:00N 46°11' W 123°52'0 0.0
2018-Jul-17 15:30N 46°11' W 123°52'0 0.0
2018-Jul-17 15:00N 46°11' W 123°52'0 0.0
2018-Jul-17 14:30N 46°11' W 123°52'0 0.0
2018-Jul-17 14:00N 46°11' W 123°52'0 0.0
2018-Jul-17 13:30N 46°11' W 123°52'0 0.0
2018-Jul-17 13:00N 46°11' W 123°52'0 0.0
2018-Jul-17 12:30N 46°11' W 123°52'0 0.0
2018-Jul-17 11:50N 46°11' W 123°52'0 0.0
2018-Jul-17 11:23N 46°11' W 123°52'0 0.0
2018-Jul-17 11:00N 46°11' W 123°52'0 0.0
2018-Jul-17 10:16N 46°11' W 123°52'0 0.0
2018-Jul-17 10:00N 46°11' W 123°52'0 0.0
2018-Jul-17 09:30N 46°11' W 123°52'0 0.0
2018-Jul-17 09:00N 46°11' W 123°52'0 0.0
2018-Jul-17 08:30N 46°11' W 123°52'0 0.0
2018-Jul-17 08:00N 46°11' W 123°52'0 0.0
2018-Jul-17 07:30N 46°11' W 123°52'0 0.0
2018-Jul-17 07:00N 46°11' W 123°52'0 0.0
2018-Jul-17 06:30N 46°11' W 123°52'0 0.0
2018-Jul-17 06:00N 46°11' W 123°52'0 0.0
2018-Jul-17 05:30N 46°11' W 123°52'0 0.0
2018-Jul-17 05:00N 46°11' W 123°52'0 0.0
2018-Jul-17 04:30N 46°11' W 123°52'0 0.0
2018-Jul-17 04:01N 46°11' W 123°52'0 0.0
2018-Jul-17 03:30N 46°11' W 123°52'0 0.0
2018-Jul-17 03:00N 46°11' W 123°52'0 0.0
2018-Jul-17 02:30N 46°11' W 123°52'0 0.0
2018-Jul-17 02:00N 46°11' W 123°52'0 0.0
2018-Jul-17 01:30N 46°11' W 123°52'0 0.0
2018-Jul-17 01:00N 46°11' W 123°52'0 0.0
2018-Jul-17 00:30N 46°11' W 123°52'0 0.0
2018-Jul-16 23:31N 46°11' W 123°52'0 0.0
2018-Jul-16 23:00N 46°11' W 123°52'0 0.0
2018-Jul-16 22:30N 46°11' W 123°52'0 0.0
2018-Jul-16 22:00N 46°11' W 123°52'0 0.0
2018-Jul-16 21:30N 46°11' W 123°52'0 0.0
2018-Jul-16 21:00N 46°11' W 123°52'0 0.0
2018-Jul-16 20:30N 46°11' W 123°52'0 0.0
2018-Jul-16 20:00N 46°11' W 123°52'0 0.0
2018-Jul-16 19:31N 46°11' W 123°52'0 0.0
2018-Jul-16 19:00N 46°11' W 123°52'0 0.0
2018-Jul-16 18:30N 46°11' W 123°52'0 0.0
2018-Jul-16 18:00N 46°11' W 123°52'0 0.0
2018-Jul-16 17:30N 46°11' W 123°52'0 0.0
2018-Jul-16 17:00N 46°11' W 123°52'0 0.0
2018-Jul-16 16:30N 46°11' W 123°52'0 0.0
2018-Jul-16 16:00N 46°11' W 123°52'0 0.0
2018-Jul-16 15:30N 46°11' W 123°52'0 0.0
2018-Jul-16 15:00N 46°11' W 123°52'0 0.0
2018-Jul-16 14:30N 46°11' W 123°52'0 0.0
2018-Jul-16 14:00N 46°11' W 123°52'0 0.0
2018-Jul-16 13:31N 46°11' W 123°52'0 0.0
2018-Jul-16 13:01N 46°11' W 123°52'0 0.0
2018-Jul-16 12:30N 46°11' W 123°52'0 0.0
2018-Jul-16 12:00N 46°11' W 123°52'0 0.0
2018-Jul-16 11:30N 46°11' W 123°52'0 0.0
2018-Jul-16 11:00N 46°11' W 123°52'0 0.0
2018-Jul-16 10:31N 46°11' W 123°52'0 0.0
2018-Jul-16 10:01N 46°11' W 123°52'0 0.0
2018-Jul-16 09:30N 46°11' W 123°52'0 0.0
2018-Jul-16 09:00N 46°11' W 123°52'0 0.0
2018-Jul-16 08:31N 46°11' W 123°52'0 0.0
2018-Jul-16 08:00N 46°11' W 123°52'0 0.0
2018-Jul-16 07:30N 46°11' W 123°52'0 0.0
2018-Jul-16 07:00N 46°11' W 123°52'0 0.0
2018-Jul-16 06:30N 46°11' W 123°52'0 0.0
2018-Jul-16 06:00N 46°11' W 123°52'0 0.0
2018-Jul-16 05:30N 46°11' W 123°52'0 0.0
2018-Jul-16 05:00N 46°11' W 123°52'0 0.0
2018-Jul-16 04:30N 46°11' W 123°52'0 0.0
2018-Jul-16 04:00N 46°11' W 123°52'0 0.0
2018-Jul-16 03:31N 46°11' W 123°52'0 0.0
2018-Jul-16 03:00N 46°11' W 123°52'0 0.0
2018-Jul-16 02:30N 46°11' W 123°52'0 0.0
2018-Jul-16 02:00N 46°11' W 123°52'0 0.0
2018-Jul-16 01:30N 46°11' W 123°52'0 0.0
2018-Jul-16 01:01N 46°11' W 123°52'0 0.0
2018-Jul-16 00:31N 46°11' W 123°52'0 0.0
2018-Jul-16 00:00N 46°11' W 123°52'0 0.0
2018-Jul-15 23:30N 46°11' W 123°52'0 0.0
2018-Jul-15 23:00N 46°11' W 123°52'0 0.0
2018-Jul-15 22:30N 46°11' W 123°52'0 0.0
2018-Jul-15 22:00N 46°11' W 123°52'0 0.0
2018-Jul-15 21:30N 46°11' W 123°52'0 0.0
2018-Jul-15 21:00N 46°11' W 123°52'0 0.0
2018-Jul-15 20:30N 46°11' W 123°52'0 0.0
2018-Jul-15 20:00N 46°11' W 123°52'0 0.0
2018-Jul-15 19:30N 46°11' W 123°52'0 0.0
2018-Jul-15 19:00N 46°11' W 123°52'0 0.0
2018-Jul-15 18:30N 46°11' W 123°52'0 0.0
2018-Jul-15 18:00N 46°11' W 123°52'0 0.0
2018-Jul-15 17:31N 46°11' W 123°52'0 0.0
2018-Jul-15 17:00N 46°11' W 123°52'0 0.0
2018-Jul-15 16:31N 46°11' W 123°52'0 0.0
2018-Jul-15 16:00N 46°11' W 123°52'0 0.0
2018-Jul-15 15:30N 46°11' W 123°52'0 0.0
2018-Jul-15 15:00N 46°11' W 123°52'0 0.0
2018-Jul-15 14:30N 46°11' W 123°52'0 0.0
2018-Jul-15 14:00N 46°11' W 123°52'0 0.0
2018-Jul-15 13:29N 46°11' W 123°52'0 0.0
2018-Jul-15 13:00N 46°11' W 123°52'0 0.0
2018-Jul-15 12:30N 46°11' W 123°52'0 0.0
2018-Jul-15 12:01N 46°11' W 123°52'0 0.0
2018-Jul-15 11:30N 46°11' W 123°52'0 0.0
2018-Jul-15 11:00N 46°11' W 123°52'0 0.0
2018-Jul-15 10:30N 46°11' W 123°52'0 0.0
2018-Jul-15 10:00N 46°11' W 123°52'0 0.0
2018-Jul-15 09:30N 46°11' W 123°52'0 0.0
2018-Jul-15 09:01N 46°11' W 123°52'0 0.0
2018-Jul-15 08:30N 46°11' W 123°52'0 0.0
2018-Jul-15 08:00N 46°11' W 123°52'0 0.0
2018-Jul-15 07:30N 46°11' W 123°52'0 0.0
2018-Jul-15 06:59N 46°11' W 123°52'0 0.0
2018-Jul-15 06:31N 46°11' W 123°52'0 0.0
2018-Jul-15 06:00N 46°11' W 123°52'0 0.0
2018-Jul-15 05:30N 46°11' W 123°52'0 0.0
2018-Jul-15 05:00N 46°11' W 123°52'0 0.0
2018-Jul-15 04:31N 46°11' W 123°52'0 0.0
2018-Jul-15 04:00N 46°11' W 123°52'0 0.0
2018-Jul-15 03:30N 46°11' W 123°52'0 0.0
2018-Jul-15 03:00N 46°11' W 123°52'0 0.0
2018-Jul-15 02:31N 46°11' W 123°52'0 0.0
2018-Jul-15 02:00N 46°11' W 123°52'0 0.0
2018-Jul-15 01:31N 46°11' W 123°52'0 0.0
2018-Jul-15 01:00N 46°11' W 123°52'0 0.0
2018-Jul-15 00:30N 46°11' W 123°52'0 0.0
2018-Jul-15 00:00N 46°11' W 123°52'0 0.0
2018-Jul-14 23:13N 46°11' W 123°52'0 0.0
2018-Jul-14 23:00N 46°11' W 123°52'0 0.0
2018-Jul-14 22:30N 46°11' W 123°52'0 0.0
2018-Jul-14 22:00N 46°11' W 123°52'0 0.0
2018-Jul-14 21:31N 46°11' W 123°52'0 0.0
2018-Jul-14 21:00N 46°11' W 123°52'0 0.0
2018-Jul-14 20:31N 46°11' W 123°52'0 0.0
2018-Jul-14 20:00N 46°11' W 123°52'0 0.0
2018-Jul-14 19:31N 46°11' W 123°52'0 0.0
2018-Jul-14 19:01N 46°11' W 123°52'0 0.0
2018-Jul-14 18:29N 46°11' W 123°52'0 0.0
2018-Jul-14 18:00N 46°11' W 123°52'0 0.0
2018-Jul-14 17:30N 46°11' W 123°52'0 0.0
2018-Jul-14 17:00N 46°11' W 123°52'0 0.0
2018-Jul-14 16:30N 46°11' W 123°52'0 0.0
2018-Jul-14 16:00N 46°11' W 123°52'0 0.0
2018-Jul-14 15:30N 46°11' W 123°52'0 0.0
2018-Jul-14 15:00N 46°11' W 123°52'0 0.0
2018-Jul-14 14:30N 46°11' W 123°52'0 0.0
2018-Jul-14 13:29N 46°11' W 123°52'0 0.0
2018-Jul-14 13:00N 46°11' W 123°52'0 0.0
2018-Jul-14 12:30N 46°11' W 123°52'0 0.0
2018-Jul-14 12:01N 46°11' W 123°52'0 0.0
2018-Jul-14 11:30N 46°11' W 123°52'0 0.0
2018-Jul-14 11:01N 46°11' W 123°52'0 0.0
2018-Jul-14 10:30N 46°11' W 123°52'0 0.0
2018-Jul-14 10:00N 46°11' W 123°52'0 0.0
2018-Jul-14 09:15N 46°11' W 123°52'0 0.0
2018-Jul-14 09:01N 46°11' W 123°52'0 0.0
2018-Jul-14 08:31N 46°11' W 123°52'0 0.0
2018-Jul-14 08:00N 46°11' W 123°52'0 0.0
2018-Jul-14 07:31N 46°11' W 123°52'0 0.0
2018-Jul-14 06:59N 46°11' W 123°52'0 0.0
2018-Jul-14 06:31N 46°11' W 123°52'0 0.0
2018-Jul-14 06:00N 46°11' W 123°52'0 0.0
2018-Jul-14 05:30N 46°11' W 123°52'0 0.0
2018-Jul-14 05:00N 46°11' W 123°52'0 0.0
2018-Jul-14 04:30N 46°11' W 123°52'0 0.0
2018-Jul-14 04:00N 46°11' W 123°52'0 0.0
2018-Jul-14 03:26N 46°11' W 123°52'0 0.0
2018-Jul-14 03:01N 46°11' W 123°52'0 0.0
2018-Jul-14 02:31N 46°11' W 123°52'0 0.0
2018-Jul-14 02:00N 46°11' W 123°52'0 0.0
2018-Jul-14 01:30N 46°11' W 123°52'0 0.0
2018-Jul-14 01:00N 46°11' W 123°52'0 0.0
2018-Jul-14 00:30N 46°11' W 123°52'0 0.0
2018-Jul-13 23:49N 46°11' W 123°52'0 0.0
2018-Jul-13 23:30N 46°11' W 123°52'0 0.0
2018-Jul-13 23:00N 46°11' W 123°52'0 0.0
2018-Jul-13 22:30N 46°11' W 123°52'0 0.0
2018-Jul-13 22:00N 46°11' W 123°52'0 0.0
2018-Jul-13 21:30N 46°11' W 123°52'0 0.0
2018-Jul-13 21:00N 46°11' W 123°52'0 0.0
2018-Jul-13 20:16N 46°11' W 123°52'0 0.0
2018-Jul-13 20:00N 46°11' W 123°52'0 0.0
2018-Jul-13 19:30N 46°11' W 123°52'0 0.0
2018-Jul-13 19:01N 46°11' W 123°52'0 0.0
2018-Jul-13 18:30N 46°11' W 123°52'0 0.0
2018-Jul-13 18:01N 46°11' W 123°52'0 0.0
2018-Jul-13 17:30N 46°11' W 123°52'0 0.0
2018-Jul-13 17:00N 46°11' W 123°52'0 0.0
2018-Jul-13 16:31N 46°11' W 123°52'0 0.0
2018-Jul-13 16:00N 46°11' W 123°52'0 0.0
2018-Jul-13 15:30N 46°11' W 123°52'0 0.0
2018-Jul-13 15:00N 46°11' W 123°52'0 0.0
2018-Jul-13 14:00N 46°11' W 123°52'0 0.0
2018-Jul-13 13:30N 46°11' W 123°52'0 0.0
2018-Jul-13 13:00N 46°11' W 123°52'0 0.0
2018-Jul-13 12:30N 46°11' W 123°52'0 0.0
2018-Jul-13 12:01N 46°11' W 123°52'0 0.0
2018-Jul-13 11:30N 46°11' W 123°52'0 0.0
2018-Jul-13 11:00N 46°11' W 123°52'0 0.0
2018-Jul-13 10:31N 46°11' W 123°52'0 0.0
2018-Jul-13 10:00N 46°11' W 123°52'0 0.0
2018-Jul-13 09:30N 46°11' W 123°52'0 0.0
2018-Jul-13 09:00N 46°11' W 123°52'0 0.0
2018-Jul-13 08:30N 46°11' W 123°52'0 0.0
2018-Jul-13 08:01N 46°11' W 123°52'0 0.0
2018-Jul-13 07:31N 46°11' W 123°52'0 0.0
2018-Jul-13 06:59N 46°11' W 123°52'0 0.0
2018-Jul-13 06:30N 46°11' W 123°52'0 0.0
2018-Jul-13 06:00N 46°11' W 123°52'0 0.0
2018-Jul-13 05:30N 46°11' W 123°52'0 0.0
2018-Jul-13 05:00N 46°11' W 123°52'0 0.0
2018-Jul-13 04:31N 46°11' W 123°52'0 0.0
2018-Jul-13 04:00N 46°11' W 123°52'0 0.0
2018-Jul-13 03:30N 46°11' W 123°52'0 0.0
2018-Jul-13 03:01N 46°11' W 123°52'0 0.0
2018-Jul-13 02:30N 46°11' W 123°52'0 0.0
2018-Jul-13 02:00N 46°11' W 123°52'0 0.0
2018-Jul-13 01:30N 46°11' W 123°52'0 0.0
2018-Jul-13 01:01N 46°11' W 123°52'0 0.0
2018-Jul-13 00:30N 46°11' W 123°52'0 0.0
2018-Jul-13 00:00N 46°11' W 123°52'0 0.0
2018-Jul-12 23:31N 46°11' W 123°52'0 0.0
2018-Jul-12 23:00N 46°11' W 123°52'0 0.0
2018-Jul-12 22:30N 46°11' W 123°52'0 0.0
2018-Jul-12 22:01N 46°11' W 123°52'0 0.0
2018-Jul-12 21:30N 46°11' W 123°52'0 0.0
2018-Jul-12 21:00N 46°11' W 123°52'0 0.0
2018-Jul-12 20:30N 46°11' W 123°52'0 0.0
2018-Jul-12 19:37N 46°11' W 123°52'0 0.0
2018-Jul-12 19:30N 46°11' W 123°52'0 0.0
2018-Jul-12 19:00N 46°11' W 123°52'0 0.0
2018-Jul-12 18:31N 46°11' W 123°52'0 0.0
2018-Jul-12 18:01N 46°11' W 123°52'0 0.0
2018-Jul-12 17:22N 46°11' W 123°52'0 0.0
2018-Jul-12 17:01N 46°11' W 123°52'0 0.0
2018-Jul-12 16:30N 46°11' W 123°52'0 0.0
2018-Jul-12 16:00N 46°11' W 123°52'0 0.0
2018-Jul-12 15:30N 46°11' W 123°52'0 0.0
2018-Jul-12 15:00N 46°11' W 123°52'0 0.0
2018-Jul-12 14:31N 46°11' W 123°52'0 0.0
2018-Jul-12 14:00N 46°11' W 123°52'0 0.0
2018-Jul-12 13:31N 46°11' W 123°52'0 0.0
2018-Jul-12 13:00N 46°11' W 123°52'0 0.0
2018-Jul-12 12:18N 46°11' W 123°52'0 0.0
2018-Jul-12 12:00N 46°11' W 123°52'0 0.0
2018-Jul-12 11:30N 46°11' W 123°52'0 0.0
2018-Jul-12 10:35N 46°11' W 123°52'0 0.0
2018-Jul-12 10:31N 46°11' W 123°52'0 0.0
2018-Jul-12 09:48N 46°11' W 123°52'0 0.0
2018-Jul-12 09:31N 46°11' W 123°52'0 0.0
2018-Jul-12 08:54N 46°11' W 123°52'0 0.0
2018-Jul-12 08:31N 46°11' W 123°52'0 0.0
2018-Jul-12 07:58N 46°11' W 123°52'0 0.0
2018-Jul-12 07:30N 46°11' W 123°52'0 0.0
2018-Jul-12 06:59N 46°11' W 123°52'0 0.0
2018-Jul-12 06:30N 46°11' W 123°52'0 0.0
2018-Jul-12 06:00N 46°11' W 123°52'0 0.0
2018-Jul-12 05:30N 46°11' W 123°52'0 0.0
2018-Jul-12 05:01N 46°11' W 123°52'0 0.0
2018-Jul-12 04:24N 46°11' W 123°52'0 0.0
2018-Jul-12 04:00N 46°11' W 123°52'0 0.0
2018-Jul-12 03:30N 46°11' W 123°52'0 0.0
2018-Jul-12 02:48N 46°11' W 123°52'0 0.0
2018-Jul-12 02:30N 46°11' W 123°52'0 0.0
2018-Jul-12 02:01N 46°11' W 123°52'0 0.0
2018-Jul-12 01:31N 46°11' W 123°52'0 0.0
2018-Jul-12 01:01N 46°11' W 123°52'0 0.0
2018-Jul-12 00:30N 46°11' W 123°52'0 0.0
2018-Jul-12 00:00N 46°11' W 123°52'0 0.0
2018-Jul-11 23:30N 46°11' W 123°52'0 0.0
2018-Jul-11 23:00N 46°11' W 123°52'0 0.0
2018-Jul-11 22:31N 46°11' W 123°52'0 0.0
2018-Jul-11 22:01N 46°11' W 123°52'0 0.0
2018-Jul-11 21:31N 46°11' W 123°52'0 0.0
2018-Jul-11 21:00N 46°11' W 123°52'0 0.0
2018-Jul-11 20:30N 46°11' W 123°52'0 0.0
2018-Jul-11 20:00N 46°11' W 123°52'0 0.0
2018-Jul-11 19:30N 46°11' W 123°52'0 0.0
2018-Jul-11 19:00N 46°11' W 123°52'0 0.0
2018-Jul-11 18:31N 46°11' W 123°52'0 0.0
2018-Jul-11 18:00N 46°11' W 123°52'0 0.0
2018-Jul-11 17:30N 46°11' W 123°52'0 0.0
2018-Jul-11 17:00N 46°11' W 123°52'0 0.0
2018-Jul-11 16:31N 46°11' W 123°52'0 0.0
2018-Jul-11 16:01N 46°11' W 123°52'0 0.0
2018-Jul-11 15:30N 46°11' W 123°52'0 0.0
2018-Jul-11 15:00N 46°11' W 123°52'0 0.0
2018-Jul-11 14:30N 46°11' W 123°52'0 0.0
2018-Jul-11 14:00N 46°11' W 123°52'0 0.0
2018-Jul-11 13:30N 46°11' W 123°52'0 0.0
2018-Jul-11 13:00N 46°11' W 123°52'0 0.0
2018-Jul-11 12:30N 46°11' W 123°52'0 0.0
2018-Jul-11 12:00N 46°11' W 123°52'0 0.0
2018-Jul-11 11:31N 46°11' W 123°52'0 0.0
2018-Jul-11 11:01N 46°11' W 123°52'0 0.0
2018-Jul-11 10:19N 46°11' W 123°52'0 0.0
2018-Jul-11 10:00N 46°11' W 123°52'0 0.0
2018-Jul-11 09:31N 46°11' W 123°52'0 0.0
2018-Jul-11 09:01N 46°11' W 123°52'0 0.0
2018-Jul-11 08:31N 46°11' W 123°52'0 0.0
2018-Jul-11 08:00N 46°11' W 123°52'0 0.0
2018-Jul-11 07:30N 46°11' W 123°52'0 0.0
2018-Jul-11 06:59N 46°11' W 123°52'0 0.0
2018-Jul-11 06:30N 46°11' W 123°52'0 0.0
2018-Jul-11 06:00N 46°11' W 123°52'0 0.0
2018-Jul-11 05:30N 46°11' W 123°52'  
Track history (hours):
 
Tides and Currents Weather Stations Pressure Air Temp Water Temp Dewpoint Dewpoint Depression Visibility Wind Speed Wind Dir Waves Ship Positions

Chellissa

Owner: CHELLISSA INC, CHARLESTON, OR. More information available from US FCC via Universal Licensing System and Coast Guard Vessel Documentation Center.

Last reported at 2018-Jul-21 05:01 UTC. Time now 2018-Jul-21 17:27 UTC.
Position N 46°57' W 124°24'.

Length 30 m; draft 4 m.

Type: Fishing. MMSI: 367162190.

Date/timePositionNaut miles runAvg speedWind from/ knotsBaromVisibWave heightAir tempDewpointWater temp
2018-Jul-21 05:01N 46°57' W 124°24'1 7.6
2018-Jul-21 04:57N 46°57' W 124°24'3 7.6
2018-Jul-21 04:30N 46°53' W 124°23'4 7.6
2018-Jul-21 04:00N 46°50' W 124°21'4 7.5
2018-Jul-21 03:30N 46°46' W 124°20'4 7.8
2018-Jul-21 03:01N 46°42' W 124°18'4 7.7
2018-Jul-21 02:30N 46°39' W 124°17'4 7.6
2018-Jul-21 02:00N 46°35' W 124°15'5 7.7
2018-Jul-21 01:19N 46°30' W 124°13'2 7.8
2018-Jul-21 01:00N 46°28' W 124°12'6 8.0
2018-Jul-21 00:13N 46°21' W 124°09'2 8.2
2018-Jul-21 00:00N 46°20' W 124°09'4 7.9
2018-Jul-20 23:29N 46°16' W 124°06'4 7.9
2018-Jul-20 23:00N 46°15' W 124°01'4 8.6
2018-Jul-20 22:31N 46°12' W 123°56'3 6.5
2018-Jul-20 22:00N 46°11' W 123°52'0 0.0
2018-Jul-20 21:14N 46°11' W 123°52'0 0.0
2018-Jul-20 21:00N 46°11' W 123°52'0 0.0
2018-Jul-20 20:30N 46°11' W 123°52'0 0.0
2018-Jul-20 20:00N 46°11' W 123°52'0 0.0
2018-Jul-20 19:17N 46°11' W 123°52'0 0.0
2018-Jul-20 19:00N 46°11' W 123°52'0 0.0
2018-Jul-20 18:30N 46°11' W 123°52'0 0.0
2018-Jul-20 18:00N 46°11' W 123°52'0 0.0
2018-Jul-20 17:30N 46°11' W 123°52'0 0.0
2018-Jul-20 17:00N 46°11' W 123°52'2 3.6
2018-Jul-20 16:22N 46°12' W 123°55'3 7.9
2018-Jul-20 16:00N 46°13' W 123°58'4 7.8
2018-Jul-20 15:30N 46°15' W 124°03'4 7.5
2018-Jul-20 14:55N 46°19' W 124°07'5 8.4
2018-Jul-20 14:16N 46°24' W 124°09'516.9
2018-Jul-20 14:00N 46°28' W 124°11'2 3.6
2018-Jul-20 13:30N 46°30' W 124°11'4 8.6
2018-Jul-20 13:00N 46°34' W 124°13'4 8.7
2018-Jul-20 12:30N 46°38' W 124°14'4 8.8
2018-Jul-20 12:00N 46°43' W 124°16'4 8.5
2018-Jul-20 11:30N 46°47' W 124°17'4 8.3
2018-Jul-20 11:00N 46°51' W 124°19'4 8.1
2018-Jul-20 10:30N 46°55' W 124°21'4 8.2
2018-Jul-20 10:00N 46°58' W 124°23'1 0.1
2018-Jul-19 06:25N 46°57' W 124°24'3 7.9
2018-Jul-19 06:00N 46°54' W 124°23'4 8.3
2018-Jul-19 05:30N 46°50' W 124°22'4 7.4
2018-Jul-19 05:00N 46°47' W 124°20'4 7.8
2018-Jul-19 04:30N 46°43' W 124°19'4 7.3
2018-Jul-19 04:00N 46°39' W 124°17'4 7.6
2018-Jul-19 03:30N 46°36' W 124°16'4 7.9
2018-Jul-19 03:01N 46°32' W 124°14'4 8.0
2018-Jul-19 02:30N 46°28' W 124°11'4 8.2
2018-Jul-19 02:00N 46°24' W 124°10'4 7.8
2018-Jul-19 01:30N 46°21' W 124°09'4 7.6
2018-Jul-19 01:00N 46°17' W 124°08'3 6.7
2018-Jul-19 00:30N 46°15' W 124°04'3 6.3
2018-Jul-19 00:00N 46°14' W 123°59'3 6.1
2018-Jul-18 23:30N 46°12' W 123°56'3 6.1
2018-Jul-18 23:01N 46°11' W 123°52'0 0.1
2018-Jul-18 22:20N 46°11' W 123°52'0 0.0
2018-Jul-18 22:00N 46°11' W 123°52'0 0.0
2018-Jul-18 21:31N 46°11' W 123°52'0 0.0
2018-Jul-18 21:01N 46°11' W 123°52'0 0.0
2018-Jul-18 20:30N 46°11' W 123°52'0 0.0
2018-Jul-18 20:00N 46°11' W 123°52'0 0.0
2018-Jul-18 19:30N 46°11' W 123°52'0 0.0
2018-Jul-18 19:00N 46°11' W 123°52'0 0.0
2018-Jul-18 18:21N 46°11' W 123°52'0 0.0
2018-Jul-18 18:01N 46°11' W 123°52'0 0.0
2018-Jul-18 17:31N 46°11' W 123°52'0 0.0
2018-Jul-18 17:00N 46°11' W 123°52'0 0.0
2018-Jul-18 16:31N 46°11' W 123°52'0 0.0
2018-Jul-18 16:01N 46°11' W 123°52'0 0.0
2018-Jul-18 15:27N 46°11' W 123°52'0 0.0
2018-Jul-18 15:00N 46°11' W 123°52'0 0.0
2018-Jul-18 14:30N 46°11' W 123°52'0 0.0
2018-Jul-18 13:30N 46°11' W 123°52'0 0.0
2018-Jul-18 13:00N 46°11' W 123°52'0 0.0
2018-Jul-18 12:16N 46°11' W 123°52'0 0.0
2018-Jul-18 12:01N 46°11' W 123°52'0 0.0
2018-Jul-18 11:30N 46°11' W 123°52'0 0.0
2018-Jul-18 10:30N 46°11' W 123°52'0 0.0
2018-Jul-18 10:00N 46°11' W 123°52'0 0.0
2018-Jul-18 09:30N 46°11' W 123°52'0 0.0
2018-Jul-18 09:00N 46°11' W 123°52'0 0.0
2018-Jul-18 08:30N 46°11' W 123°52'0 0.0
2018-Jul-18 08:00N 46°11' W 123°52'0 0.0
2018-Jul-18 07:30N 46°11' W 123°52'0 0.0
2018-Jul-18 06:59N 46°11' W 123°52'0 0.0
2018-Jul-18 06:31N 46°11' W 123°52'0 0.0
2018-Jul-18 06:00N 46°11' W 123°52'0 0.0
2018-Jul-18 05:30N 46°11' W 123°52'0 0.0
2018-Jul-18 04:48N 46°11' W 123°52'0 0.0
2018-Jul-18 04:30N 46°11' W 123°52'0 0.0
2018-Jul-18 03:54N 46°11' W 123°52'0 0.0
2018-Jul-18 03:30N 46°11' W 123°52'0 0.0
2018-Jul-18 03:00N 46°11' W 123°52'0 0.0
2018-Jul-18 02:31N 46°11' W 123°52'0 0.0
2018-Jul-18 02:00N 46°11' W 123°52'0 0.0
2018-Jul-18 01:31N 46°11' W 123°52'0 0.0
2018-Jul-18 00:40N 46°11' W 123°52'0 0.0
2018-Jul-18 00:31N 46°11' W 123°52'0 0.0
2018-Jul-18 00:00N 46°11' W 123°52'0 0.0
2018-Jul-17 23:30N 46°11' W 123°52'0 0.0
2018-Jul-17 23:00N 46°11' W 123°52'0 0.0
2018-Jul-17 22:31N 46°11' W 123°52'0 0.0
2018-Jul-17 22:01N 46°11' W 123°52'0 0.0
2018-Jul-17 21:30N 46°11' W 123°52'0 0.0
2018-Jul-17 21:00N 46°11' W 123°52'0 0.0
2018-Jul-17 20:31N 46°11' W 123°52'0 0.0
2018-Jul-17 20:00N 46°11' W 123°52'0 0.0
2018-Jul-17 19:30N 46°11' W 123°52'0 0.0
2018-Jul-17 19:00N 46°11' W 123°52'0 0.0
2018-Jul-17 18:30N 46°11' W 123°52'0 0.0
2018-Jul-17 18:00N 46°11' W 123°52'0 0.0
2018-Jul-17 17:31N 46°11' W 123°52'0 0.0
2018-Jul-17 17:00N 46°11' W 123°52'0 0.0
2018-Jul-17 16:15N 46°11' W 123°52'0 0.0
2018-Jul-17 16:00N 46°11' W 123°52'0 0.0
2018-Jul-17 15:30N 46°11' W 123°52'0 0.0
2018-Jul-17 15:00N 46°11' W 123°52'0 0.0
2018-Jul-17 14:30N 46°11' W 123°52'0 0.0
2018-Jul-17 14:00N 46°11' W 123°52'0 0.0
2018-Jul-17 13:30N 46°11' W 123°52'0 0.0
2018-Jul-17 13:00N 46°11' W 123°52'0 0.0
2018-Jul-17 12:30N 46°11' W 123°52'0 0.0
2018-Jul-17 11:50N 46°11' W 123°52'0 0.0
2018-Jul-17 11:23N 46°11' W 123°52'0 0.0
2018-Jul-17 11:00N 46°11' W 123°52'0 0.0
2018-Jul-17 10:16N 46°11' W 123°52'0 0.0
2018-Jul-17 10:00N 46°11' W 123°52'0 0.0
2018-Jul-17 09:30N 46°11' W 123°52'0 0.0
2018-Jul-17 09:00N 46°11' W 123°52'0 0.0
2018-Jul-17 08:30N 46°11' W 123°52'0 0.0
2018-Jul-17 08:00N 46°11' W 123°52'0 0.0
2018-Jul-17 07:30N 46°11' W 123°52'0 0.0
2018-Jul-17 07:00N 46°11' W 123°52'0 0.0
2018-Jul-17 06:30N 46°11' W 123°52'0 0.0
2018-Jul-17 06:00N 46°11' W 123°52'0 0.0
2018-Jul-17 05:30N 46°11' W 123°52'0 0.0
2018-Jul-17 05:00N 46°11' W 123°52'0 0.0
2018-Jul-17 04:30N 46°11' W 123°52'0 0.0
2018-Jul-17 04:01N 46°11' W 123°52'0 0.0
2018-Jul-17 03:30N 46°11' W 123°52'0 0.0
2018-Jul-17 03:00N 46°11' W 123°52'0 0.0
2018-Jul-17 02:30N 46°11' W 123°52'0 0.0
2018-Jul-17 02:00N 46°11' W 123°52'0 0.0
2018-Jul-17 01:30N 46°11' W 123°52'0 0.0
2018-Jul-17 01:00N 46°11' W 123°52'0 0.0
2018-Jul-17 00:30N 46°11' W 123°52'0 0.0
2018-Jul-16 23:31N 46°11' W 123°52'0 0.0
2018-Jul-16 23:00N 46°11' W 123°52'0 0.0
2018-Jul-16 22:30N 46°11' W 123°52'0 0.0
2018-Jul-16 22:00N 46°11' W 123°52'0 0.0
2018-Jul-16 21:30N 46°11' W 123°52'0 0.0
2018-Jul-16 21:00N 46°11' W 123°52'0 0.0
2018-Jul-16 20:30N 46°11' W 123°52'0 0.0
2018-Jul-16 20:00N 46°11' W 123°52'0 0.0
2018-Jul-16 19:31N 46°11' W 123°52'0 0.0
2018-Jul-16 19:00N 46°11' W 123°52'0 0.0
2018-Jul-16 18:30N 46°11' W 123°52'0 0.0
2018-Jul-16 18:00N 46°11' W 123°52'0 0.0
2018-Jul-16 17:30N 46°11' W 123°52'0 0.0
2018-Jul-16 17:00N 46°11' W 123°52'0 0.0
2018-Jul-16 16:30N 46°11' W 123°52'0 0.0
2018-Jul-16 16:00N 46°11' W 123°52'0 0.0
2018-Jul-16 15:30N 46°11' W 123°52'0 0.0
2018-Jul-16 15:00N 46°11' W 123°52'0 0.0
2018-Jul-16 14:30N 46°11' W 123°52'0 0.0
2018-Jul-16 14:00N 46°11' W 123°52'0 0.0
2018-Jul-16 13:31N 46°11' W 123°52'0 0.0
2018-Jul-16 13:01N 46°11' W 123°52'0 0.0
2018-Jul-16 12:30N 46°11' W 123°52'0 0.0
2018-Jul-16 12:00N 46°11' W 123°52'0 0.0
2018-Jul-16 11:30N 46°11' W 123°52'0 0.0
2018-Jul-16 11:00N 46°11' W 123°52'0 0.0
2018-Jul-16 10:31N 46°11' W 123°52'0 0.0
2018-Jul-16 10:01N 46°11' W 123°52'0 0.0
2018-Jul-16 09:30N 46°11' W 123°52'0 0.0
2018-Jul-16 09:00N 46°11' W 123°52'0 0.0
2018-Jul-16 08:31N 46°11' W 123°52'0 0.0
2018-Jul-16 08:00N 46°11' W 123°52'0 0.0
2018-Jul-16 07:30N 46°11' W 123°52'0 0.0
2018-Jul-16 07:00N 46°11' W 123°52'0 0.0
2018-Jul-16 06:30N 46°11' W 123°52'0 0.0
2018-Jul-16 06:00N 46°11' W 123°52'0 0.0
2018-Jul-16 05:30N 46°11' W 123°52'0 0.0
2018-Jul-16 05:00N 46°11' W 123°52'0 0.0
2018-Jul-16 04:30N 46°11' W 123°52'0 0.0
2018-Jul-16 04:00N 46°11' W 123°52'0 0.0
2018-Jul-16 03:31N 46°11' W 123°52'0 0.0
2018-Jul-16 03:00N 46°11' W 123°52'0 0.0
2018-Jul-16 02:30N 46°11' W 123°52'0 0.0
2018-Jul-16 02:00N 46°11' W 123°52'0 0.0
2018-Jul-16 01:30N 46°11' W 123°52'0 0.0
2018-Jul-16 01:01N 46°11' W 123°52'0 0.0
2018-Jul-16 00:31N 46°11' W 123°52'0 0.0
2018-Jul-16 00:00N 46°11' W 123°52'0 0.0
2018-Jul-15 23:30N 46°11' W 123°52'0 0.0
2018-Jul-15 23:00N 46°11' W 123°52'0 0.0
2018-Jul-15 22:30N 46°11' W 123°52'0 0.0
2018-Jul-15 22:00N 46°11' W 123°52'0 0.0
2018-Jul-15 21:30N 46°11' W 123°52'0 0.0
2018-Jul-15 21:00N 46°11' W 123°52'0 0.0
2018-Jul-15 20:30N 46°11' W 123°52'0 0.0
2018-Jul-15 20:00N 46°11' W 123°52'0 0.0
2018-Jul-15 19:30N 46°11' W 123°52'0 0.0
2018-Jul-15 19:00N 46°11' W 123°52'0 0.0
2018-Jul-15 18:30N 46°11' W 123°52'0 0.0
2018-Jul-15 18:00N 46°11' W 123°52'0 0.0
2018-Jul-15 17:31N 46°11' W 123°52'0 0.0
2018-Jul-15 17:00N 46°11' W 123°52'0 0.0
2018-Jul-15 16:31N 46°11' W 123°52'0 0.0
2018-Jul-15 16:00N 46°11' W 123°52'0 0.0
2018-Jul-15 15:30N 46°11' W 123°52'0 0.0
2018-Jul-15 15:00N 46°11' W 123°52'0 0.0
2018-Jul-15 14:30N 46°11' W 123°52'0 0.0
2018-Jul-15 14:00N 46°11' W 123°52'0 0.0
2018-Jul-15 13:29N 46°11' W 123°52'0 0.0
2018-Jul-15 13:00N 46°11' W 123°52'0 0.0
2018-Jul-15 12:30N 46°11' W 123°52'0 0.0
2018-Jul-15 12:01N 46°11' W 123°52'0 0.0
2018-Jul-15 11:30N 46°11' W 123°52'0 0.0
2018-Jul-15 11:00N 46°11' W 123°52'0 0.0
2018-Jul-15 10:30N 46°11' W 123°52'0 0.0
2018-Jul-15 10:00N 46°11' W 123°52'0 0.0
2018-Jul-15 09:30N 46°11' W 123°52'0 0.0
2018-Jul-15 09:01N 46°11' W 123°52'0 0.0
2018-Jul-15 08:30N 46°11' W 123°52'0 0.0
2018-Jul-15 08:00N 46°11' W 123°52'0 0.0
2018-Jul-15 07:30N 46°11' W 123°52'0 0.0
2018-Jul-15 06:59N 46°11' W 123°52'0 0.0
2018-Jul-15 06:31N 46°11' W 123°52'0 0.0
2018-Jul-15 06:00N 46°11' W 123°52'0 0.0
2018-Jul-15 05:30N 46°11' W 123°52'0 0.0
2018-Jul-15 05:00N 46°11' W 123°52'0 0.0
2018-Jul-15 04:31N 46°11' W 123°52'0 0.0
2018-Jul-15 04:00N 46°11' W 123°52'0 0.0
2018-Jul-15 03:30N 46°11' W 123°52'0 0.0
2018-Jul-15 03:00N 46°11' W 123°52'0 0.0
2018-Jul-15 02:31N 46°11' W 123°52'0 0.0
2018-Jul-15 02:00N 46°11' W 123°52'0 0.0
2018-Jul-15 01:31N 46°11' W 123°52'0 0.0
2018-Jul-15 01:00N 46°11' W 123°52'0 0.0
2018-Jul-15 00:30N 46°11' W 123°52'0 0.0
2018-Jul-15 00:00N 46°11' W 123°52'0 0.0
2018-Jul-14 23:13N 46°11' W 123°52'0 0.0
2018-Jul-14 23:00N 46°11' W 123°52'0 0.0
2018-Jul-14 22:30N 46°11' W 123°52'0 0.0
2018-Jul-14 22:00N 46°11' W 123°52'0 0.0
2018-Jul-14 21:31N 46°11' W 123°52'0 0.0
2018-Jul-14 21:00N 46°11' W 123°52'0 0.0
2018-Jul-14 20:31N 46°11' W 123°52'0 0.0
2018-Jul-14 20:00N 46°11' W 123°52'0 0.0
2018-Jul-14 19:31N 46°11' W 123°52'0 0.0
2018-Jul-14 19:01N 46°11' W 123°52'0 0.0
2018-Jul-14 18:29N 46°11' W 123°52'0 0.0
2018-Jul-14 18:00N 46°11' W 123°52'0 0.0
2018-Jul-14 17:30N 46°11' W 123°52'0 0.0
2018-Jul-14 17:00N 46°11' W 123°52'0 0.0
2018-Jul-14 16:30N 46°11' W 123°52'0 0.0
2018-Jul-14 16:00N 46°11' W 123°52'0 0.0
2018-Jul-14 15:30N 46°11' W 123°52'0 0.0
2018-Jul-14 15:00N 46°11' W 123°52'0 0.0
2018-Jul-14 14:30N 46°11' W 123°52'0 0.0
2018-Jul-14 13:29N 46°11' W 123°52'0 0.0
2018-Jul-14 13:00N 46°11' W 123°52'0 0.0
2018-Jul-14 12:30N 46°11' W 123°52'0 0.0
2018-Jul-14 12:01N 46°11' W 123°52'0 0.0
2018-Jul-14 11:30N 46°11' W 123°52'0 0.0
2018-Jul-14 11:01N 46°11' W 123°52'0 0.0
2018-Jul-14 10:30N 46°11' W 123°52'0 0.0
2018-Jul-14 10:00N 46°11' W 123°52'0 0.0
2018-Jul-14 09:15N 46°11' W 123°52'0 0.0
2018-Jul-14 09:01N 46°11' W 123°52'0 0.0
2018-Jul-14 08:31N 46°11' W 123°52'0 0.0
2018-Jul-14 08:00N 46°11' W 123°52'0 0.0
2018-Jul-14 07:31N 46°11' W 123°52'0 0.0
2018-Jul-14 06:59N 46°11' W 123°52'0 0.0
2018-Jul-14 06:31N 46°11' W 123°52'0 0.0
2018-Jul-14 06:00N 46°11' W 123°52'0 0.0
2018-Jul-14 05:30N 46°11' W 123°52'0 0.0
2018-Jul-14 05:00N 46°11' W 123°52'0 0.0
2018-Jul-14 04:30N 46°11' W 123°52'0 0.0
2018-Jul-14 04:00N 46°11' W 123°52'0 0.0
2018-Jul-14 03:26N 46°11' W 123°52'0 0.0
2018-Jul-14 03:01N 46°11' W 123°52'0 0.0
2018-Jul-14 02:31N 46°11' W 123°52'0 0.0
2018-Jul-14 02:00N 46°11' W 123°52'0 0.0
2018-Jul-14 01:30N 46°11' W 123°52'0 0.0
2018-Jul-14 01:00N 46°11' W 123°52'0 0.0
2018-Jul-14 00:30N 46°11' W 123°52'0 0.0
2018-Jul-13 23:49N 46°11' W 123°52'0 0.0
2018-Jul-13 23:30N 46°11' W 123°52'0 0.0
2018-Jul-13 23:00N 46°11' W 123°52'0 0.0
2018-Jul-13 22:30N 46°11' W 123°52'0 0.0
2018-Jul-13 22:00N 46°11' W 123°52'0 0.0
2018-Jul-13 21:30N 46°11' W 123°52'0 0.0
2018-Jul-13 21:00N 46°11' W 123°52'0 0.0
2018-Jul-13 20:16N 46°11' W 123°52'0 0.0
2018-Jul-13 20:00N 46°11' W 123°52'0 0.0
2018-Jul-13 19:30N 46°11' W 123°52'0 0.0
2018-Jul-13 19:01N 46°11' W 123°52'0 0.0
2018-Jul-13 18:30N 46°11' W 123°52'0 0.0
2018-Jul-13 18:01N 46°11' W 123°52'0 0.0
2018-Jul-13 17:30N 46°11' W 123°52'0 0.0
2018-Jul-13 17:00N 46°11' W 123°52'0 0.0
2018-Jul-13 16:31N 46°11' W 123°52'0 0.0
2018-Jul-13 16:00N 46°11' W 123°52'0 0.0
2018-Jul-13 15:30N 46°11' W 123°52'0 0.0
2018-Jul-13 15:00N 46°11' W 123°52'0 0.0
2018-Jul-13 14:00N 46°11' W 123°52'0 0.0
2018-Jul-13 13:30N 46°11' W 123°52'0 0.0
2018-Jul-13 13:00N 46°11' W 123°52'0 0.0
2018-Jul-13 12:30N 46°11' W 123°52'0 0.0
2018-Jul-13 12:01N 46°11' W 123°52'0 0.0
2018-Jul-13 11:30N 46°11' W 123°52'0 0.0
2018-Jul-13 11:00N 46°11' W 123°52'0 0.0
2018-Jul-13 10:31N 46°11' W 123°52'0 0.0
2018-Jul-13 10:00N 46°11' W 123°52'0 0.0
2018-Jul-13 09:30N 46°11' W 123°52'0 0.0
2018-Jul-13 09:00N 46°11' W 123°52'0 0.0
2018-Jul-13 08:30N 46°11' W 123°52'0 0.0
2018-Jul-13 08:01N 46°11' W 123°52'0 0.0
2018-Jul-13 07:31N 46°11' W 123°52'0 0.0
2018-Jul-13 06:59N 46°11' W 123°52'0 0.0
2018-Jul-13 06:30N 46°11' W 123°52'0 0.0
2018-Jul-13 06:00N 46°11' W 123°52'0 0.0
2018-Jul-13 05:30N 46°11' W 123°52'0 0.0
2018-Jul-13 05:00N 46°11' W 123°52'0 0.0
2018-Jul-13 04:31N 46°11' W 123°52'0 0.0
2018-Jul-13 04:00N 46°11' W 123°52'0 0.0
2018-Jul-13 03:30N 46°11' W 123°52'0 0.0
2018-Jul-13 03:01N 46°11' W 123°52'0 0.0
2018-Jul-13 02:30N 46°11' W 123°52'0 0.0
2018-Jul-13 02:00N 46°11' W 123°52'0 0.0
2018-Jul-13 01:30N 46°11' W 123°52'0 0.0
2018-Jul-13 01:01N 46°11' W 123°52'0 0.0
2018-Jul-13 00:30N 46°11' W 123°52'0 0.0
2018-Jul-13 00:00N 46°11' W 123°52'0 0.0
2018-Jul-12 23:31N 46°11' W 123°52'0 0.0
2018-Jul-12 23:00N 46°11' W 123°52'0 0.0
2018-Jul-12 22:30N 46°11' W 123°52'0 0.0
2018-Jul-12 22:01N 46°11' W 123°52'0 0.0
2018-Jul-12 21:30N 46°11' W 123°52'0 0.0
2018-Jul-12 21:00N 46°11' W 123°52'0 0.0
2018-Jul-12 20:30N 46°11' W 123°52'0 0.0
2018-Jul-12 19:37N 46°11' W 123°52'0 0.0
2018-Jul-12 19:30N 46°11' W 123°52'0 0.0
2018-Jul-12 19:00N 46°11' W 123°52'0 0.0
2018-Jul-12 18:31N 46°11' W 123°52'0 0.0
2018-Jul-12 18:01N 46°11' W 123°52'0 0.0
2018-Jul-12 17:22N 46°11' W 123°52'0 0.0
2018-Jul-12 17:01N 46°11' W 123°52'0 0.0
2018-Jul-12 16:30N 46°11' W 123°52'0 0.0
2018-Jul-12 16:00N 46°11' W 123°52'0 0.0
2018-Jul-12 15:30N 46°11' W 123°52'0 0.0
2018-Jul-12 15:00N 46°11' W 123°52'0 0.0
2018-Jul-12 14:31N 46°11' W 123°52'0 0.0
2018-Jul-12 14:00N 46°11' W 123°52'0 0.0
2018-Jul-12 13:31N 46°11' W 123°52'0 0.0
2018-Jul-12 13:00N 46°11' W 123°52'0 0.0
2018-Jul-12 12:18N 46°11' W 123°52'0 0.0
2018-Jul-12 12:00N 46°11' W 123°52'0 0.0
2018-Jul-12 11:30N 46°11' W 123°52'0 0.0
2018-Jul-12 10:35N 46°11' W 123°52'0 0.0
2018-Jul-12 10:31N 46°11' W 123°52'0 0.0
2018-Jul-12 09:48N 46°11' W 123°52'0 0.0
2018-Jul-12 09:31N 46°11' W 123°52'0 0.0
2018-Jul-12 08:54N 46°11' W 123°52'0 0.0
2018-Jul-12 08:31N 46°11' W 123°52'0 0.0
2018-Jul-12 07:58N 46°11' W 123°52'0 0.0
2018-Jul-12 07:30N 46°11' W 123°52'0 0.0
2018-Jul-12 06:59N 46°11' W 123°52'0 0.0
2018-Jul-12 06:30N 46°11' W 123°52'0 0.0
2018-Jul-12 06:00N 46°11' W 123°52'0 0.0
2018-Jul-12 05:30N 46°11' W 123°52'0 0.0
2018-Jul-12 05:01N 46°11' W 123°52'0 0.0
2018-Jul-12 04:24N 46°11' W 123°52'0 0.0
2018-Jul-12 04:00N 46°11' W 123°52'0 0.0
2018-Jul-12 03:30N 46°11' W 123°52'0 0.0
2018-Jul-12 02:48N 46°11' W 123°52'0 0.0
2018-Jul-12 02:30N 46°11' W 123°52'0 0.0
2018-Jul-12 02:01N 46°11' W 123°52'0 0.0
2018-Jul-12 01:31N 46°11' W 123°52'0 0.0
2018-Jul-12 01:01N 46°11' W 123°52'0 0.0
2018-Jul-12 00:30N 46°11' W 123°52'0 0.0
2018-Jul-12 00:00N 46°11' W 123°52'0 0.0
2018-Jul-11 23:30N 46°11' W 123°52'0 0.0
2018-Jul-11 23:00N 46°11' W 123°52'0 0.0
2018-Jul-11 22:31N 46°11' W 123°52'0 0.0
2018-Jul-11 22:01N 46°11' W 123°52'0 0.0
2018-Jul-11 21:31N 46°11' W 123°52'0 0.0
2018-Jul-11 21:00N 46°11' W 123°52'0 0.0
2018-Jul-11 20:30N 46°11' W 123°52'0 0.0
2018-Jul-11 20:00N 46°11' W 123°52'0 0.0
2018-Jul-11 19:30N 46°11' W 123°52'0 0.0
2018-Jul-11 19:00N 46°11' W 123°52'0 0.0
2018-Jul-11 18:31N 46°11' W 123°52'0 0.0
2018-Jul-11 18:00N 46°11' W 123°52'0 0.0
2018-Jul-11 17:30N 46°11' W 123°52'0 0.0
2018-Jul-11 17:00N 46°11' W 123°52'0 0.0
2018-Jul-11 16:31N 46°11' W 123°52'0 0.0
2018-Jul-11 16:01N 46°11' W 123°52'0 0.0
2018-Jul-11 15:30N 46°11' W 123°52'0 0.0
2018-Jul-11 15:00N 46°11' W 123°52'0 0.0
2018-Jul-11 14:30N 46°11' W 123°52'0 0.0
2018-Jul-11 14:00N 46°11' W 123°52'0 0.0
2018-Jul-11 13:30N 46°11' W 123°52'0 0.0
2018-Jul-11 13:00N 46°11' W 123°52'0 0.0
2018-Jul-11 12:30N 46°11' W 123°52'0 0.0
2018-Jul-11 12:00N 46°11' W 123°52'0 0.0
2018-Jul-11 11:31N 46°11' W 123°52'0 0.0
2018-Jul-11 11:01N 46°11' W 123°52'0 0.0
2018-Jul-11 10:19N 46°11' W 123°52'0 0.0
2018-Jul-11 10:00N 46°11' W 123°52'0 0.0
2018-Jul-11 09:31N 46°11' W 123°52'0 0.0
2018-Jul-11 09:01N 46°11' W 123°52'0 0.0
2018-Jul-11 08:31N 46°11' W 123°52'0 0.0
2018-Jul-11 08:00N 46°11' W 123°52'0 0.0
2018-Jul-11 07:30N 46°11' W 123°52'0 0.0
2018-Jul-11 06:59N 46°11' W 123°52'0 0.0
2018-Jul-11 06:30N 46°11' W 123°52'0 0.0
2018-Jul-11 06:00N 46°11' W 123°52'0 0.0
2018-Jul-11 05:30N 46°11' W 123°52'  

Dump ship's entire track history